sensor_id;sensor_type;location;lat;lon;timestamp;temperature;humidity
18252;DHT22;26917;52.328;20.878;2023-02-12T00:01:25;1.80;99.90
18252;DHT22;26917;52.328;20.878;2023-02-12T00:03:55;2.20;99.90
18252;DHT22;26917;52.328;20.878;2023-02-12T00:06:23;1.60;99.90
18252;DHT22;26917;52.328;20.878;2023-02-12T00:08:55;1.10;99.90
18252;DHT22;26917;52.328;20.878;2023-02-12T00:11:25;1.00;99.90
18252;DHT22;26917;52.328;20.878;2023-02-12T00:13:54;1.40;99.90
18252;DHT22;26917;52.328;20.878;2023-02-12T00:16:24;1.50;99.90
18252;DHT22;26917;52.328;20.878;2023-02-12T00:18:55;2.40;99.90
18252;DHT22;26917;52.328;20.878;2023-02-12T00:21:24;2.50;99.90
18252;DHT22;26917;52.328;20.878;2023-02-12T00:23:54;1.10;99.90
18252;DHT22;26917;52.328;20.878;2023-02-12T00:26:23;1.70;99.90
18252;DHT22;26917;52.328;20.878;2023-02-12T00:28:51;1.30;99.90
18252;DHT22;26917;52.328;20.878;2023-02-12T00:31:22;1.70;99.90
18252;DHT22;26917;52.328;20.878;2023-02-12T00:33:51;1.50;99.90
18252;DHT22;26917;52.328;20.878;2023-02-12T00:36:21;1.20;99.90
18252;DHT22;26917;52.328;20.878;2023-02-12T00:38:51;0.90;99.90
18252;DHT22;26917;52.328;20.878;2023-02-12T00:41:22;1.20;99.90
18252;DHT22;26917;52.328;20.878;2023-02-12T00:43:50;2.50;99.90
18252;DHT22;26917;52.328;20.878;2023-02-12T00:46:18;1.20;99.90
18252;DHT22;26917;52.328;20.878;2023-02-12T00:48:48;2.30;99.90
18252;DHT22;26917;52.328;20.878;2023-02-12T00:51:19;1.20;99.90
18252;DHT22;26917;52.328;20.878;2023-02-12T00:53:47;0.80;99.90
18252;DHT22;26917;52.328;20.878;2023-02-12T00:56:15;1.50;99.90
18252;DHT22;26917;52.328;20.878;2023-02-12T00:58:49;1.10;99.90
18252;DHT22;26917;52.328;20.878;2023-02-12T01:01:17;1.70;99.90
18252;DHT22;26917;52.328;20.878;2023-02-12T01:03:47;1.90;99.90
18252;DHT22;26917;52.328;20.878;2023-02-12T01:06:16;1.10;99.90
18252;DHT22;26917;52.328;20.878;2023-02-12T01:08:49;1.10;99.90
18252;DHT22;26917;52.328;20.878;2023-02-12T01:11:19;1.00;99.90
18252;DHT22;26917;52.328;20.878;2023-02-12T01:13:49;1.10;99.90
18252;DHT22;26917;52.328;20.878;2023-02-12T01:16:19;2.20;99.90
18252;DHT22;26917;52.328;20.878;2023-02-12T01:18:50;1.10;99.90
18252;DHT22;26917;52.328;20.878;2023-02-12T01:21:23;2.00;99.90
18252;DHT22;26917;52.328;20.878;2023-02-12T01:23:52;0.80;99.90
18252;DHT22;26917;52.328;20.878;2023-02-12T01:26:21;1.50;99.90
18252;DHT22;26917;52.328;20.878;2023-02-12T01:28:53;1.80;99.90
18252;DHT22;26917;52.328;20.878;2023-02-12T01:31:24;0.50;99.90
18252;DHT22;26917;52.328;20.878;2023-02-12T01:33:54;0.60;99.90
18252;DHT22;26917;52.328;20.878;2023-02-12T01:36:24;0.30;99.90
18252;DHT22;26917;52.328;20.878;2023-02-12T01:38:53;1.90;99.90
18252;DHT22;26917;52.328;20.878;2023-02-12T01:41:23;0.80;99.90
18252;DHT22;26917;52.328;20.878;2023-02-12T01:44:16;1.00;99.90
18252;DHT22;26917;52.328;20.878;2023-02-12T01:46:46;0.30;99.90
18252;DHT22;26917;52.328;20.878;2023-02-12T01:49:18;1.00;99.90
18252;DHT22;26917;52.328;20.878;2023-02-12T01:51:53;1.00;99.90
18252;DHT22;26917;52.328;20.878;2023-02-12T01:54:23;1.00;99.90
18252;DHT22;26917;52.328;20.878;2023-02-12T01:56:52;2.20;99.90
18252;DHT22;26917;52.328;20.878;2023-02-12T01:59:23;0.90;99.90
18252;DHT22;26917;52.328;20.878;2023-02-12T02:01:54;1.00;99.90
18252;DHT22;26917;52.328;20.878;2023-02-12T02:04:25;0.90;99.90
18252;DHT22;26917;52.328;20.878;2023-02-12T02:06:56;1.00;99.90
18252;DHT22;26917;52.328;20.878;2023-02-12T02:09:27;1.00;99.90
18252;DHT22;26917;52.328;20.878;2023-02-12T02:11:56;0.80;99.90
18252;DHT22;26917;52.328;20.878;2023-02-12T02:14:44;1.00;99.90
18252;DHT22;26917;52.328;20.878;2023-02-12T02:17:27;1.00;99.90
18252;DHT22;26917;52.328;20.878;2023-02-12T02:20:27;1.00;99.90
18252;DHT22;26917;52.328;20.878;2023-02-12T02:23:24;1.00;99.90
18252;DHT22;26917;52.328;20.878;2023-02-12T02:26:32;0.50;99.90
18252;DHT22;26917;52.328;20.878;2023-02-12T02:29:18;1.00;99.90
18252;DHT22;26917;52.328;20.878;2023-02-12T02:31:53;2.10;99.90
18252;DHT22;26917;52.328;20.878;2023-02-12T02:34:29;0.60;99.90
18252;DHT22;26917;52.328;20.878;2023-02-12T02:37:10;0.70;99.90
18252;DHT22;26917;52.328;20.878;2023-02-12T02:39:46;1.00;99.90
18252;DHT22;26917;52.328;20.878;2023-02-12T02:42:21;1.00;99.90
18252;DHT22;26917;52.328;20.878;2023-02-12T02:44:54;0.90;99.90
18252;DHT22;26917;52.328;20.878;2023-02-12T02:47:33;1.20;99.90
18252;DHT22;26917;52.328;20.878;2023-02-12T02:50:05;1.80;99.90
18252;DHT22;26917;52.328;20.878;2023-02-12T02:52:38;1.00;99.90
18252;DHT22;26917;52.328;20.878;2023-02-12T02:55:09;0.90;99.90
18252;DHT22;26917;52.328;20.878;2023-02-12T02:57:41;1.20;99.90
18252;DHT22;26917;52.328;20.878;2023-02-12T03:00:16;1.30;99.90
18252;DHT22;26917;52.328;20.878;2023-02-12T03:02:49;0.90;99.90
18252;DHT22;26917;52.328;20.878;2023-02-12T03:05:21;0.10;99.90
18252;DHT22;26917;52.328;20.878;2023-02-12T03:07:53;1.20;99.90
18252;DHT22;26917;52.328;20.878;2023-02-12T03:10:28;0.20;99.90
18252;DHT22;26917;52.328;20.878;2023-02-12T03:13:01;0.60;99.90
18252;DHT22;26917;52.328;20.878;2023-02-12T03:15:34;1.10;99.90
18252;DHT22;26917;52.328;20.878;2023-02-12T03:18:08;0.80;99.90
18252;DHT22;26917;52.328;20.878;2023-02-12T03:20:42;0.80;99.90
18252;DHT22;26917;52.328;20.878;2023-02-12T03:23:16;1.60;99.90
18252;DHT22;26917;52.328;20.878;2023-02-12T03:25:49;0.80;99.90
18252;DHT22;26917;52.328;20.878;2023-02-12T03:28:24;0.90;99.90
18252;DHT22;26917;52.328;20.878;2023-02-12T03:31:01;0.50;99.90
18252;DHT22;26917;52.328;20.878;2023-02-12T03:33:40;0.90;99.90
18252;DHT22;26917;52.328;20.878;2023-02-12T03:36:21;0.80;99.90
18252;DHT22;26917;52.328;20.878;2023-02-12T03:38:55;0.80;99.90
18252;DHT22;26917;52.328;20.878;2023-02-12T03:41:27;0.30;99.90
18252;DHT22;26917;52.328;20.878;2023-02-12T03:44:05;0.90;99.90
18252;DHT22;26917;52.328;20.878;2023-02-12T03:46:40;0.80;99.90
18252;DHT22;26917;52.328;20.878;2023-02-12T03:49:17;0.70;99.90
18252;DHT22;26917;52.328;20.878;2023-02-12T03:51:47;0.80;99.90
18252;DHT22;26917;52.328;20.878;2023-02-12T03:54:17;0.70;99.90
18252;DHT22;26917;52.328;20.878;2023-02-12T03:56:48;0.50;99.90
18252;DHT22;26917;52.328;20.878;2023-02-12T03:59:19;0.70;99.90
18252;DHT22;26917;52.328;20.878;2023-02-12T04:01:50;0.70;99.90
18252;DHT22;26917;52.328;20.878;2023-02-12T04:04:22;0.70;99.90
18252;DHT22;26917;52.328;20.878;2023-02-12T04:06:52;0.20;99.90
18252;DHT22;26917;52.328;20.878;2023-02-12T04:09:22;0.40;99.90
18252;DHT22;26917;52.328;20.878;2023-02-12T04:11:58;0.70;99.90
18252;DHT22;26917;52.328;20.878;2023-02-12T04:14:33;0.70;99.90
18252;DHT22;26917;52.328;20.878;2023-02-12T04:17:08;0.60;99.90
18252;DHT22;26917;52.328;20.878;2023-02-12T04:19:48;-0.20;99.90
18252;DHT22;26917;52.328;20.878;2023-02-12T04:22:28;0.60;99.90
18252;DHT22;26917;52.328;20.878;2023-02-12T04:25:09;0.50;99.90
18252;DHT22;26917;52.328;20.878;2023-02-12T04:27:46;0.50;99.90
18252;DHT22;26917;52.328;20.878;2023-02-12T04:30:20;0.50;99.90
18252;DHT22;26917;52.328;20.878;2023-02-12T04:32:53;0.60;99.90
18252;DHT22;26917;52.328;20.878;2023-02-12T04:35:30;0.50;99.90
18252;DHT22;26917;52.328;20.878;2023-02-12T04:38:04;-0.10;99.90
18252;DHT22;26917;52.328;20.878;2023-02-12T04:40:37;0.50;99.90
18252;DHT22;26917;52.328;20.878;2023-02-12T04:43:06;0.40;99.90
18252;DHT22;26917;52.328;20.878;2023-02-12T04:45:36;0.50;99.90
18252;DHT22;26917;52.328;20.878;2023-02-12T04:48:05;0.50;99.90
18252;DHT22;26917;52.328;20.878;2023-02-12T04:50:39;0.90;99.90
18252;DHT22;26917;52.328;20.878;2023-02-12T04:53:08;0.20;99.90
18252;DHT22;26917;52.328;20.878;2023-02-12T04:55:37;0.50;99.90
18252;DHT22;26917;52.328;20.878;2023-02-12T04:58:05;0.40;99.90
18252;DHT22;26917;52.328;20.878;2023-02-12T05:00:34;0.40;99.90
18252;DHT22;26917;52.328;20.878;2023-02-12T05:03:02;0.40;99.90
18252;DHT22;26917;52.328;20.878;2023-02-12T05:05:31;0.40;99.90
18252;DHT22;26917;52.328;20.878;2023-02-12T05:08:01;0.40;99.90
18252;DHT22;26917;52.328;20.878;2023-02-12T05:10:29;0.40;99.90
18252;DHT22;26917;52.328;20.878;2023-02-12T05:12:58;0.40;99.90
18252;DHT22;26917;52.328;20.878;2023-02-12T05:15:26;0.40;99.90
18252;DHT22;26917;52.328;20.878;2023-02-12T05:17:54;1.40;99.90
18252;DHT22;26917;52.328;20.878;2023-02-12T05:20:22;0.80;99.90
18252;DHT22;26917;52.328;20.878;2023-02-12T05:22:52;0.80;99.90
18252;DHT22;26917;52.328;20.878;2023-02-12T05:25:21;0.80;99.90
18252;DHT22;26917;52.328;20.878;2023-02-12T05:27:50;0.30;99.90
18252;DHT22;26917;52.328;20.878;2023-02-12T05:30:18;0.60;99.90
18252;DHT22;26917;52.328;20.878;2023-02-12T05:32:46;-0.10;99.90
18252;DHT22;26917;52.328;20.878;2023-02-12T05:35:15;0.50;99.90
18252;DHT22;26917;52.328;20.878;2023-02-12T05:37:43;0.30;99.90
18252;DHT22;26917;52.328;20.878;2023-02-12T05:40:12;0.20;99.90
18252;DHT22;26917;52.328;20.878;2023-02-12T05:42:42;0.20;99.90
18252;DHT22;26917;52.328;20.878;2023-02-12T05:45:10;0.20;99.90
18252;DHT22;26917;52.328;20.878;2023-02-12T05:47:38;-0.30;99.90
18252;DHT22;26917;52.328;20.878;2023-02-12T05:50:07;0.80;99.90
18252;DHT22;26917;52.328;20.878;2023-02-12T05:52:36;0.10;99.90
18252;DHT22;26917;52.328;20.878;2023-02-12T05:55:05;0.10;99.90
18252;DHT22;26917;52.328;20.878;2023-02-12T05:57:33;0.10;99.90
18252;DHT22;26917;52.328;20.878;2023-02-12T06:00:04;0.10;99.90
18252;DHT22;26917;52.328;20.878;2023-02-12T06:02:38;0.20;99.90
18252;DHT22;26917;52.328;20.878;2023-02-12T06:05:06;0.50;99.90
18252;DHT22;26917;52.328;20.878;2023-02-12T06:07:35;0.20;99.90
18252;DHT22;26917;52.328;20.878;2023-02-12T06:10:04;0.20;99.90
18252;DHT22;26917;52.328;20.878;2023-02-12T06:12:32;0.20;99.90
18252;DHT22;26917;52.328;20.878;2023-02-12T06:15:00;0.20;99.90
18252;DHT22;26917;52.328;20.878;2023-02-12T06:17:30;0.00;99.90
18252;DHT22;26917;52.328;20.878;2023-02-12T06:19:58;0.10;99.90
18252;DHT22;26917;52.328;20.878;2023-02-12T06:22:27;-0.10;99.90
18252;DHT22;26917;52.328;20.878;2023-02-12T06:24:55;0.10;99.90
18252;DHT22;26917;52.328;20.878;2023-02-12T06:27:24;0.00;99.90
18252;DHT22;26917;52.328;20.878;2023-02-12T06:29:52;0.00;99.90
18252;DHT22;26917;52.328;20.878;2023-02-12T06:32:20;-0.40;99.90
18252;DHT22;26917;52.328;20.878;2023-02-12T06:34:50;0.00;99.90
18252;DHT22;26917;52.328;20.878;2023-02-12T06:37:19;-0.10;99.90
18252;DHT22;26917;52.328;20.878;2023-02-12T06:39:47;-0.10;99.90
18252;DHT22;26917;52.328;20.878;2023-02-12T06:42:15;-0.10;99.90
18252;DHT22;26917;52.328;20.878;2023-02-12T06:44:44;-0.10;99.90
18252;DHT22;26917;52.328;20.878;2023-02-12T06:47:13;-0.10;99.90
18252;DHT22;26917;52.328;20.878;2023-02-12T06:49:41;-0.20;99.90
18252;DHT22;26917;52.328;20.878;2023-02-12T06:52:11;-0.30;99.90
18252;DHT22;26917;52.328;20.878;2023-02-12T06:54:40;-0.30;99.90
18252;DHT22;26917;52.328;20.878;2023-02-12T06:57:08;-0.10;99.90
18252;DHT22;26917;52.328;20.878;2023-02-12T06:59:37;0.60;99.90
18252;DHT22;26917;52.328;20.878;2023-02-12T07:02:05;0.00;99.90
18252;DHT22;26917;52.328;20.878;2023-02-12T07:04:33;0.10;99.90
18252;DHT22;26917;52.328;20.878;2023-02-12T07:07:03;-0.10;99.90
18252;DHT22;26917;52.328;20.878;2023-02-12T07:09:33;-0.10;99.90
18252;DHT22;26917;52.328;20.878;2023-02-12T07:12:01;-0.30;99.90
18252;DHT22;26917;52.328;20.878;2023-02-12T07:14:29;0.20;99.90
18252;DHT22;26917;52.328;20.878;2023-02-12T07:16:58;0.40;99.90
18252;DHT22;26917;52.328;20.878;2023-02-12T07:19:29;0.20;99.90
18252;DHT22;26917;52.328;20.878;2023-02-12T07:21:58;-0.30;99.90
18252;DHT22;26917;52.328;20.878;2023-02-12T07:24:26;-0.10;99.90
18252;DHT22;26917;52.328;20.878;2023-02-12T07:26:56;0.70;99.90
18252;DHT22;26917;52.328;20.878;2023-02-12T07:29:24;0.30;99.90
18252;DHT22;26917;52.328;20.878;2023-02-12T07:31:52;0.00;99.90
18252;DHT22;26917;52.328;20.878;2023-02-12T07:34:21;0.00;99.90
18252;DHT22;26917;52.328;20.878;2023-02-12T07:36:49;0.70;99.90
18252;DHT22;26917;52.328;20.878;2023-02-12T07:39:18;-0.10;99.90
18252;DHT22;26917;52.328;20.878;2023-02-12T07:41:46;0.00;99.90
18252;DHT22;26917;52.328;20.878;2023-02-12T07:44:16;0.00;99.90
18252;DHT22;26917;52.328;20.878;2023-02-12T07:46:45;-0.30;99.90
18252;DHT22;26917;52.328;20.878;2023-02-12T07:49:16;0.10;99.90
18252;DHT22;26917;52.328;20.878;2023-02-12T07:51:44;0.20;99.90
18252;DHT22;26917;52.328;20.878;2023-02-12T07:54:13;0.30;99.90
18252;DHT22;26917;52.328;20.878;2023-02-12T07:56:42;0.30;99.90
18252;DHT22;26917;52.328;20.878;2023-02-12T07:59:16;0.40;99.90
18252;DHT22;26917;52.328;20.878;2023-02-12T08:01:46;0.40;99.90
18252;DHT22;26917;52.328;20.878;2023-02-12T08:04:16;0.40;99.90
18252;DHT22;26917;52.328;20.878;2023-02-12T08:06:45;1.20;99.90
18252;DHT22;26917;52.328;20.878;2023-02-12T08:09:16;0.60;99.90
18252;DHT22;26917;52.328;20.878;2023-02-12T08:11:45;1.20;99.90
18252;DHT22;26917;52.328;20.878;2023-02-12T08:14:16;0.60;99.90
18252;DHT22;26917;52.328;20.878;2023-02-12T08:16:46;0.60;99.90
18252;DHT22;26917;52.328;20.878;2023-02-12T08:19:15;0.80;99.90
18252;DHT22;26917;52.328;20.878;2023-02-12T08:21:49;0.60;99.90
18252;DHT22;26917;52.328;20.878;2023-02-12T08:24:18;0.80;99.90
18252;DHT22;26917;52.328;20.878;2023-02-12T08:26:48;0.90;99.90
18252;DHT22;26917;52.328;20.878;2023-02-12T08:29:19;0.10;99.90
18252;DHT22;26917;52.328;20.878;2023-02-12T08:31:50;1.40;99.90
18252;DHT22;26917;52.328;20.878;2023-02-12T08:34:23;0.80;99.90
18252;DHT22;26917;52.328;20.878;2023-02-12T08:37:00;1.10;99.90
18252;DHT22;26917;52.328;20.878;2023-02-12T08:39:29;0.80;99.90
18252;DHT22;26917;52.328;20.878;2023-02-12T08:41:58;0.90;99.90
18252;DHT22;26917;52.328;20.878;2023-02-12T08:44:29;1.60;99.90
18252;DHT22;26917;52.328;20.878;2023-02-12T08:46:57;1.00;99.90
18252;DHT22;26917;52.328;20.878;2023-02-12T08:49:28;0.80;99.90
18252;DHT22;26917;52.328;20.878;2023-02-12T08:51:58;0.50;99.90
18252;DHT22;26917;52.328;20.878;2023-02-12T08:54:29;0.50;99.90
18252;DHT22;26917;52.328;20.878;2023-02-12T08:56:59;1.10;99.90
18252;DHT22;26917;52.328;20.878;2023-02-12T08:59:29;0.70;99.90
18252;DHT22;26917;52.328;20.878;2023-02-12T09:01:57;1.40;99.90
18252;DHT22;26917;52.328;20.878;2023-02-12T09:04:27;1.90;99.90
18252;DHT22;26917;52.328;20.878;2023-02-12T09:06:55;0.90;99.90
18252;DHT22;26917;52.328;20.878;2023-02-12T09:09:24;0.80;99.90
18252;DHT22;26917;52.328;20.878;2023-02-12T09:11:52;1.10;99.90
18252;DHT22;26917;52.328;20.878;2023-02-12T09:14:20;1.10;99.90
18252;DHT22;26917;52.328;20.878;2023-02-12T09:16:52;1.20;99.90
18252;DHT22;26917;52.328;20.878;2023-02-12T09:19:23;1.30;99.90
18252;DHT22;26917;52.328;20.878;2023-02-12T09:21:52;1.30;99.90
18252;DHT22;26917;52.328;20.878;2023-02-12T09:24:23;1.30;99.90
18252;DHT22;26917;52.328;20.878;2023-02-12T09:26:51;2.30;99.90
18252;DHT22;26917;52.328;20.878;2023-02-12T09:29:20;1.00;99.90
18252;DHT22;26917;52.328;20.878;2023-02-12T09:31:48;1.60;99.90
18252;DHT22;26917;52.328;20.878;2023-02-12T09:34:18;1.50;99.90
18252;DHT22;26917;52.328;20.878;2023-02-12T09:36:47;1.40;99.90
18252;DHT22;26917;52.328;20.878;2023-02-12T09:39:16;1.30;99.90
18252;DHT22;26917;52.328;20.878;2023-02-12T09:42:05;1.20;99.90
18252;DHT22;26917;52.328;20.878;2023-02-12T09:44:38;1.60;99.90
18252;DHT22;26917;52.328;20.878;2023-02-12T09:47:12;1.60;99.90
18252;DHT22;26917;52.328;20.878;2023-02-12T09:50:00;1.50;99.90
18252;DHT22;26917;52.328;20.878;2023-02-12T09:52:31;1.60;99.90
18252;DHT22;26917;52.328;20.878;2023-02-12T09:55:00;1.90;99.90
18252;DHT22;26917;52.328;20.878;2023-02-12T09:57:31;2.90;99.90
18252;DHT22;26917;52.328;20.878;2023-02-12T10:00:05;2.90;99.90
18252;DHT22;26917;52.328;20.878;2023-02-12T10:02:38;2.00;99.90
18252;DHT22;26917;52.328;20.878;2023-02-12T10:05:15;2.00;99.90
18252;DHT22;26917;52.328;20.878;2023-02-12T10:07:56;1.80;99.90
18252;DHT22;26917;52.328;20.878;2023-02-12T10:10:43;2.10;99.90
18252;DHT22;26917;52.328;20.878;2023-02-12T10:13:19;2.00;99.90
18252;DHT22;26917;52.328;20.878;2023-02-12T10:15:54;2.00;99.90
18252;DHT22;26917;52.328;20.878;2023-02-12T10:18:50;2.20;99.90
18252;DHT22;26917;52.328;20.878;2023-02-12T10:21:34;2.10;99.90
18252;DHT22;26917;52.328;20.878;2023-02-12T10:24:16;2.10;99.90
18252;DHT22;26917;52.328;20.878;2023-02-12T10:26:49;2.00;99.90
18252;DHT22;26917;52.328;20.878;2023-02-12T10:29:22;2.30;99.90
18252;DHT22;26917;52.328;20.878;2023-02-12T10:31:53;2.20;99.90
18252;DHT22;26917;52.328;20.878;2023-02-12T10:34:24;2.30;99.90
18252;DHT22;26917;52.328;20.878;2023-02-12T10:36:59;3.00;99.90
18252;DHT22;26917;52.328;20.878;2023-02-12T10:39:32;2.80;99.90
18252;DHT22;26917;52.328;20.878;2023-02-12T10:42:08;2.50;99.90
18252;DHT22;26917;52.328;20.878;2023-02-12T10:44:38;2.90;99.90
18252;DHT22;26917;52.328;20.878;2023-02-12T10:47:11;2.50;99.90
18252;DHT22;26917;52.328;20.878;2023-02-12T10:49:41;2.10;99.90
18252;DHT22;26917;52.328;20.878;2023-02-12T10:52:17;3.40;99.90
18252;DHT22;26917;52.328;20.878;2023-02-12T10:54:49;3.30;99.90
18252;DHT22;26917;52.328;20.878;2023-02-12T10:57:19;3.00;99.90
18252;DHT22;26917;52.328;20.878;2023-02-12T10:59:49;2.50;99.90
18252;DHT22;26917;52.328;20.878;2023-02-12T11:02:25;2.20;99.90
18252;DHT22;26917;52.328;20.878;2023-02-12T11:04:55;2.70;99.90
18252;DHT22;26917;52.328;20.878;2023-02-12T11:07:26;3.10;99.90
18252;DHT22;26917;52.328;20.878;2023-02-12T11:09:56;3.50;99.90
18252;DHT22;26917;52.328;20.878;2023-02-12T11:12:31;2.90;99.90
18252;DHT22;26917;52.328;20.878;2023-02-12T11:15:05;2.60;99.90
18252;DHT22;26917;52.328;20.878;2023-02-12T11:17:36;2.90;99.90
18252;DHT22;26917;52.328;20.878;2023-02-12T11:20:32;3.90;99.90
18252;DHT22;26917;52.328;20.878;2023-02-12T11:23:04;2.30;99.90
18252;DHT22;26917;52.328;20.878;2023-02-12T11:25:34;3.10;99.90
18252;DHT22;26917;52.328;20.878;2023-02-12T11:28:11;3.90;99.90
18252;DHT22;26917;52.328;20.878;2023-02-12T11:30:53;3.00;99.90
18252;DHT22;26917;52.328;20.878;2023-02-12T11:33:25;3.20;99.90
18252;DHT22;26917;52.328;20.878;2023-02-12T11:35:55;3.00;99.90
18252;DHT22;26917;52.328;20.878;2023-02-12T11:38:29;3.50;99.90
18252;DHT22;26917;52.328;20.878;2023-02-12T11:41:02;2.90;99.90
18252;DHT22;26917;52.328;20.878;2023-02-12T11:43:33;3.70;99.90
18252;DHT22;26917;52.328;20.878;2023-02-12T11:46:03;2.80;99.90
18252;DHT22;26917;52.328;20.878;2023-02-12T11:48:36;3.90;99.90
18252;DHT22;26917;52.328;20.878;2023-02-12T11:51:08;3.80;99.90
18252;DHT22;26917;52.328;20.878;2023-02-12T11:53:49;2.80;99.90
18252;DHT22;26917;52.328;20.878;2023-02-12T11:56:19;3.60;99.90
18252;DHT22;26917;52.328;20.878;2023-02-12T11:58:49;3.90;99.90
18252;DHT22;26917;52.328;20.878;2023-02-12T12:01:19;3.80;99.90
18252;DHT22;26917;52.328;20.878;2023-02-12T12:03:54;3.40;99.90
18252;DHT22;26917;52.328;20.878;2023-02-12T12:06:31;3.10;99.90
18252;DHT22;26917;52.328;20.878;2023-02-12T12:09:06;3.00;99.90
18252;DHT22;26917;52.328;20.878;2023-02-12T12:11:43;3.30;99.90
18252;DHT22;26917;52.328;20.878;2023-02-12T12:14:21;3.40;99.90
18252;DHT22;26917;52.328;20.878;2023-02-12T12:16:54;3.20;99.90
18252;DHT22;26917;52.328;20.878;2023-02-12T12:19:49;3.60;99.90
18252;DHT22;26917;52.328;20.878;2023-02-12T12:22:40;3.80;99.90
18252;DHT22;26917;52.328;20.878;2023-02-12T12:25:17;4.00;99.90
18252;DHT22;26917;52.328;20.878;2023-02-12T12:27:59;4.80;99.90
18252;DHT22;26917;52.328;20.878;2023-02-12T12:30:42;4.10;99.90
18252;DHT22;26917;52.328;20.878;2023-02-12T12:33:15;4.10;99.90
18252;DHT22;26917;52.328;20.878;2023-02-12T12:35:52;3.60;99.90
18252;DHT22;26917;52.328;20.878;2023-02-12T12:38:32;4.40;99.90
18252;DHT22;26917;52.328;20.878;2023-02-12T12:41:10;3.50;99.90
18252;DHT22;26917;52.328;20.878;2023-02-12T12:43:49;4.50;99.90
18252;DHT22;26917;52.328;20.878;2023-02-12T12:46:30;3.80;99.90
18252;DHT22;26917;52.328;20.878;2023-02-12T12:49:22;4.60;99.90
18252;DHT22;26917;52.328;20.878;2023-02-12T12:52:05;3.70;99.90
18252;DHT22;26917;52.328;20.878;2023-02-12T12:54:44;3.80;99.90
18252;DHT22;26917;52.328;20.878;2023-02-12T12:57:25;3.50;99.90
18252;DHT22;26917;52.328;20.878;2023-02-12T13:00:17;3.90;99.90
18252;DHT22;26917;52.328;20.878;2023-02-12T13:03:14;3.80;99.90
18252;DHT22;26917;52.328;20.878;2023-02-12T13:06:02;3.50;99.90
18252;DHT22;26917;52.328;20.878;2023-02-12T13:08:50;4.00;99.90
18252;DHT22;26917;52.328;20.878;2023-02-12T13:11:32;3.50;99.90
18252;DHT22;26917;52.328;20.878;2023-02-12T13:14:20;3.60;99.90
18252;DHT22;26917;52.328;20.878;2023-02-12T13:16:55;3.60;99.90
18252;DHT22;26917;52.328;20.878;2023-02-12T13:19:35;3.70;99.90
18252;DHT22;26917;52.328;20.878;2023-02-12T13:22:12;4.60;99.90
18252;DHT22;26917;52.328;20.878;2023-02-12T13:24:46;4.00;99.90
18252;DHT22;26917;52.328;20.878;2023-02-12T13:27:20;4.10;99.90
18252;DHT22;26917;52.328;20.878;2023-02-12T13:29:52;3.60;99.90
18252;DHT22;26917;52.328;20.878;2023-02-12T13:32:24;3.80;99.90
18252;DHT22;26917;52.328;20.878;2023-02-12T13:34:55;3.40;99.90
18252;DHT22;26917;52.328;20.878;2023-02-12T13:37:32;3.60;99.90
18252;DHT22;26917;52.328;20.878;2023-02-12T13:40:04;3.40;99.90
18252;DHT22;26917;52.328;20.878;2023-02-12T13:42:42;3.60;99.90
18252;DHT22;26917;52.328;20.878;2023-02-12T13:45:25;4.60;99.90
18252;DHT22;26917;52.328;20.878;2023-02-12T13:48:05;3.50;99.90
18252;DHT22;26917;52.328;20.878;2023-02-12T13:50:42;3.40;99.90
18252;DHT22;26917;52.328;20.878;2023-02-12T13:53:17;3.90;99.90
18252;DHT22;26917;52.328;20.878;2023-02-12T13:55:58;3.50;99.90
18252;DHT22;26917;52.328;20.878;2023-02-12T13:58:48;3.50;99.90
18252;DHT22;26917;52.328;20.878;2023-02-12T14:01:43;3.80;99.90
18252;DHT22;26917;52.328;20.878;2023-02-12T14:04:26;3.40;99.90
18252;DHT22;26917;52.328;20.878;2023-02-12T14:07:14;3.40;99.90
18252;DHT22;26917;52.328;20.878;2023-02-12T14:09:45;3.40;99.90
18252;DHT22;26917;52.328;20.878;2023-02-12T14:12:16;2.90;99.90
18252;DHT22;26917;52.328;20.878;2023-02-12T14:14:47;3.40;99.90
18252;DHT22;26917;52.328;20.878;2023-02-12T14:17:40;3.50;99.90
18252;DHT22;26917;52.328;20.878;2023-02-12T14:20:26;3.20;99.90
18252;DHT22;26917;52.328;20.878;2023-02-12T14:25:58;3.10;99.90
18252;DHT22;26917;52.328;20.878;2023-02-12T14:28:33;3.00;99.90
18252;DHT22;26917;52.328;20.878;2023-02-12T14:31:21;4.00;99.90
18252;DHT22;26917;52.328;20.878;2023-02-12T14:37:17;2.80;99.90
18252;DHT22;26917;52.328;20.878;2023-02-12T14:43:02;2.70;99.90
18252;DHT22;26917;52.328;20.878;2023-02-12T14:45:34;2.70;99.90
18252;DHT22;26917;52.328;20.878;2023-02-12T14:48:04;2.70;99.90
18252;DHT22;26917;52.328;20.878;2023-02-12T14:50:39;3.30;99.90
18252;DHT22;26917;52.328;20.878;2023-02-12T14:53:30;2.70;99.90
18252;DHT22;26917;52.328;20.878;2023-02-12T14:56:00;2.70;99.90
18252;DHT22;26917;52.328;20.878;2023-02-12T14:58:31;2.60;99.90
18252;DHT22;26917;52.328;20.878;2023-02-12T15:01:00;2.30;99.90
18252;DHT22;26917;52.328;20.878;2023-02-12T15:03:37;2.40;99.90
18252;DHT22;26917;52.328;20.878;2023-02-12T15:06:12;2.30;99.90
18252;DHT22;26917;52.328;20.878;2023-02-12T15:08:49;2.20;99.90
18252;DHT22;26917;52.328;20.878;2023-02-12T15:11:24;3.00;99.90
18252;DHT22;26917;52.328;20.878;2023-02-12T15:13:57;1.90;99.90
18252;DHT22;26917;52.328;20.878;2023-02-12T15:16:32;2.00;99.90
18252;DHT22;26917;52.328;20.878;2023-02-12T15:19:11;1.50;99.90
18252;DHT22;26917;52.328;20.878;2023-02-12T15:21:44;2.00;99.90
18252;DHT22;26917;52.328;20.878;2023-02-12T15:24:21;1.40;99.90
18252;DHT22;26917;52.328;20.878;2023-02-12T15:26:52;1.10;99.90
18252;DHT22;26917;52.328;20.878;2023-02-12T15:29:24;1.90;99.90
18252;DHT22;26917;52.328;20.878;2023-02-12T15:31:55;2.30;99.90
18252;DHT22;26917;52.328;20.878;2023-02-12T15:34:28;3.30;99.90
18252;DHT22;26917;52.328;20.878;2023-02-12T15:36:59;1.90;99.90
18252;DHT22;26917;52.328;20.878;2023-02-12T15:39:34;1.60;99.90
18252;DHT22;26917;52.328;20.878;2023-02-12T15:42:04;1.30;99.90
18252;DHT22;26917;52.328;20.878;2023-02-12T15:44:49;1.40;99.90
18252;DHT22;26917;52.328;20.878;2023-02-12T15:47:18;1.40;99.90
18252;DHT22;26917;52.328;20.878;2023-02-12T15:49:57;1.00;99.90
18252;DHT22;26917;52.328;20.878;2023-02-12T15:52:31;0.80;99.90
18252;DHT22;26917;52.328;20.878;2023-02-12T15:55:02;1.10;99.90
18252;DHT22;26917;52.328;20.878;2023-02-12T15:57:32;0.90;99.90
18252;DHT22;26917;52.328;20.878;2023-02-12T16:00:03;0.90;99.90
18252;DHT22;26917;52.328;20.878;2023-02-12T16:02:38;0.70;99.90
18252;DHT22;26917;52.328;20.878;2023-02-12T16:05:09;0.60;99.90
18252;DHT22;26917;52.328;20.878;2023-02-12T16:07:41;1.60;99.90
18252;DHT22;26917;52.328;20.878;2023-02-12T16:10:13;0.40;99.90
18252;DHT22;26917;52.328;20.878;2023-02-12T16:12:43;1.40;99.90
18252;DHT22;26917;52.328;20.878;2023-02-12T16:15:27;0.30;99.90
18252;DHT22;26917;52.328;20.878;2023-02-12T16:17:57;0.20;99.90